Time;durP1;ratioP1;P1;durP2;ratioP2;P2;SDS_P1;SDS_P2;PMS_P1;PMS_P2;Temp;Humidity;BMP_temperature;BMP_pressure;BME280_temperature;BME280_humidity;BME280_pressure;Samples;Min_cycle;Max_cycle;Signal;HPM_P1;HPM_P2
2022/07/20 00:00:49;;;;;;;3.63;1.90;;;24.10;84.40;;;;;;5073258;28;20055;-73
2022/07/20 00:03:15;;;;;;;3.70;2.20;;;24.00;85.10;;;;;;5055058;28;20053;-73
2022/07/20 00:05:42;;;;;;;2.75;1.90;;;24.00;85.30;;;;;;5073317;28;20060;-73
2022/07/20 00:08:09;;;;;;;3.42;1.92;;;23.90;85.20;;;;;;5073243;28;20051;-74
2022/07/20 00:13:21;;;;;;;5.25;2.22;;;23.80;85.00;;;;;;5073821;28;20059;-73
2022/07/20 00:15:47;;;;;;;3.42;1.80;;;23.80;84.90;;;;;;5073638;28;20409;-73
2022/07/20 00:18:13;;;;;;;4.07;2.15;;;23.70;84.70;;;;;;5073100;28;20071;-73
2022/07/20 00:20:39;;;;;;;6.13;2.55;;;23.70;84.80;;;;;;5073150;28;20076;-73
2022/07/20 00:23:05;;;;;;;3.58;1.90;;;23.60;84.70;;;;;;5073098;28;20067;-73
2022/07/20 00:25:31;;;;;;;3.35;2.10;;;23.60;85.10;;;;;;5073070;28;20049;-73
2022/07/20 00:27:57;;;;;;;4.78;2.33;;;23.50;85.30;;;;;;5072998;28;20049;-73
2022/07/20 00:30:22;;;;;;;4.28;1.95;;;23.50;85.50;;;;;;5072977;28;20086;-73
2022/07/20 00:32:48;;;;;;;5.55;2.42;;;23.40;85.60;;;;;;5073315;28;20113;-73
2022/07/20 00:35:15;;;;;;;2.72;2.00;;;23.40;85.90;;;;;;5073016;28;20478;-73
2022/07/20 00:37:42;;;;;;;4.25;2.00;;;23.40;86.20;;;;;;5072955;28;20110;-73
2022/07/20 00:40:10;;;;;;;3.53;2.28;;;23.30;86.30;;;;;;5072914;28;20045;-73
2022/07/20 00:42:36;;;;;;;3.72;2.10;;;23.20;86.60;;;;;;5073447;28;20097;-73
2022/07/20 00:45:04;;;;;;;3.75;2.00;;;23.20;86.90;;;;;;5055504;28;20055;-73
2022/07/20 00:47:29;;;;;;;3.15;2.30;;;23.10;87.00;;;;;;5073418;28;20048;-73
2022/07/20 00:49:55;;;;;;;2.78;2.03;;;23.10;87.20;;;;;;5073578;28;20385;-73
2022/07/20 00:52:21;;;;;;;2.60;1.70;;;23.10;87.20;;;;;;5072840;28;20045;-73
2022/07/20 00:54:48;;;;;;;4.47;2.28;;;23.10;87.50;;;;;;5072154;28;20461;-73
2022/07/20 00:57:15;;;;;;;3.72;2.10;;;23.00;87.20;;;;;;5073991;28;20131;-73
2022/07/20 00:59:41;;;;;;;4.05;2.33;;;23.00;87.50;;;;;;5076660;28;20044;-73
2022/07/20 01:02:06;;;;;;;4.13;2.22;;;23.00;87.30;;;;;;5076323;28;20056;-73
2022/07/20 01:04:32;;;;;;;4.63;2.28;;;23.00;87.50;;;;;;5076312;28;20131;-73
2022/07/20 01:06:58;;;;;;;3.75;2.10;;;22.90;87.20;;;;;;5075860;28;20048;-73
2022/07/20 01:09:24;;;;;;;4.30;2.40;;;23.00;87.30;;;;;;5075247;28;20082;-73
2022/07/20 01:11:50;;;;;;;3.47;2.10;;;22.90;87.30;;;;;;5092358;28;20182;-73
2022/07/20 01:14:16;;;;;;;3.10;2.28;;;23.00;87.60;;;;;;5076357;28;20090;-73
2022/07/20 01:16:42;;;;;;;4.35;2.30;;;22.90;87.70;;;;;;5077376;28;20055;-73
2022/07/20 01:19:08;;;;;;;3.70;2.35;;;22.90;87.60;;;;;;5076274;28;20128;-73
2022/07/20 01:21:40;;;;;;;4.18;2.20;;;22.80;87.80;;;;;;5076311;28;20051;-73
2022/07/20 01:24:15;;;;;;;4.63;2.50;;;22.80;88.00;;;;;;5076744;28;20091;-73
2022/07/20 01:26:43;;;;;;;3.67;2.35;;;22.80;88.10;;;;;;5075494;28;20053;-73
2022/07/20 01:29:09;;;;;;;4.65;2.28;;;22.80;88.10;;;;;;5075929;28;20080;-73
2022/07/20 01:31:35;;;;;;;2.90;2.20;;;22.80;88.00;;;;;;5075830;28;20088;-73
2022/07/20 01:34:01;;;;;;;3.40;2.20;;;22.70;87.90;;;;;;5076015;28;20131;-73
2022/07/20 01:36:27;;;;;;;2.85;2.15;;;22.70;88.00;;;;;;5075039;28;20222;-73
2022/07/20 01:38:52;;;;;;;4.03;2.15;;;22.70;88.10;;;;;;5076218;28;20072;-73
2022/07/20 01:41:19;;;;;;;3.47;2.13;;;22.60;88.20;;;;;;5075858;28;20526;-73
2022/07/20 01:43:44;;;;;;;3.20;2.30;;;22.60;88.40;;;;;;5075814;28;20055;-73
2022/07/20 01:46:10;;;;;;;5.68;2.08;;;22.60;88.70;;;;;;5075804;28;20052;-73
2022/07/20 01:48:36;;;;;;;3.95;2.30;;;22.50;88.90;;;;;;5076237;28;20039;-73
2022/07/20 01:51:02;;;;;;;3.58;2.22;;;22.50;89.00;;;;;;5075716;28;20044;-73
2022/07/20 01:53:28;;;;;;;3.90;2.10;;;22.40;88.90;;;;;;5075609;28;20059;-73
2022/07/20 01:55:54;;;;;;;5.63;2.13;;;22.40;89.10;;;;;;5058218;28;20055;-73
2022/07/20 01:58:20;;;;;;;5.25;2.42;;;22.40;89.30;;;;;;5075458;28;20044;-73
2022/07/20 02:00:46;;;;;;;4.40;2.42;;;22.40;89.50;;;;;;5091392;28;20124;-73
2022/07/20 02:03:12;;;;;;;3.05;2.20;;;22.30;89.50;;;;;;5075540;28;20417;-75
2022/07/20 02:05:38;;;;;;;3.88;2.38;;;22.30;89.70;;;;;;5075443;28;20044;-75
2022/07/20 02:08:04;;;;;;;2.90;2.17;;;22.30;89.50;;;;;;5074474;28;20045;-75
2022/07/20 02:10:30;;;;;;;4.03;2.20;;;22.30;89.50;;;;;;5074083;28;20469;-75
2022/07/20 02:12:56;;;;;;;4.07;2.30;;;22.20;89.70;;;;;;5075306;28;20054;-75
2022/07/20 02:18:10;;;;;;;3.42;2.10;;;22.10;90.00;;;;;;5075789;28;20144;-75
2022/07/20 02:20:37;;;;;;;3.35;2.05;;;22.10;90.10;;;;;;5074210;28;20135;-75
2022/07/20 02:23:04;;;;;;;3.17;2.20;;;22.00;90.20;;;;;;5075766;28;20113;-75
2022/07/20 02:25:30;;;;;;;4.03;2.45;;;22.00;90.30;;;;;;5075132;28;20101;-75
2022/07/20 02:27:55;;;;;;;2.92;2.30;;;22.00;90.40;;;;;;5074973;28;20550;-75
2022/07/20 02:30:21;;;;;;;5.53;2.20;;;22.00;90.40;;;;;;5073688;28;20097;-75
2022/07/20 02:32:47;;;;;;;3.65;2.25;;;22.00;90.40;;;;;;5074881;28;20041;-75
2022/07/20 02:35:12;;;;;;;3.67;1.95;;;22.00;90.50;;;;;;5075203;28;20087;-75
2022/07/20 02:37:38;;;;;;;4.50;2.15;;;21.90;90.60;;;;;;5074777;28;20044;-75
2022/07/20 02:40:04;;;;;;;4.00;2.47;;;21.90;90.80;;;;;;5074719;28;20043;-75
2022/07/20 02:42:30;;;;;;;3.72;2.50;;;21.80;90.80;;;;;;5074690;28;20059;-75
2022/07/20 02:44:56;;;;;;;3.83;2.63;;;21.80;91.00;;;;;;5074645;28;20044;-75
2022/07/20 02:47:21;;;;;;;4.60;2.20;;;21.80;91.10;;;;;;5075079;28;20118;-75
2022/07/20 02:49:47;;;;;;;2.90;2.10;;;21.80;91.10;;;;;;5074529;28;20048;-75
2022/07/20 02:52:13;;;;;;;4.07;2.53;;;21.80;91.20;;;;;;5073495;28;20131;-75
2022/07/20 02:54:38;;;;;;;4.90;2.22;;;21.80;91.30;;;;;;5073287;28;20123;-75
2022/07/20 02:57:04;;;;;;;3.65;2.40;;;21.70;91.40;;;;;;5074428;28;20044;-75
2022/07/20 02:59:30;;;;;;;3.75;2.30;;;21.70;91.40;;;;;;5074312;28;20102;-75
2022/07/20 03:01:55;;;;;;;4.15;2.35;;;21.70;91.50;;;;;;5056815;28;20063;-75
2022/07/20 03:04:21;;;;;;;3.08;2.30;;;21.60;91.50;;;;;;5074293;28;20080;-75
2022/07/20 03:06:47;;;;;;;3.55;2.28;;;21.60;91.60;;;;;;5073273;28;20052;-75
2022/07/20 03:09:12;;;;;;;3.97;2.30;;;21.60;91.60;;;;;;5074096;28;20476;-75
2022/07/20 03:11:38;;;;;;;3.53;2.40;;;21.60;91.60;;;;;;5074379;28;20102;-75
2022/07/20 03:14:04;;;;;;;3.88;2.22;;;21.60;91.70;;;;;;5074121;28;20044;-75
2022/07/20 03:16:29;;;;;;;3.28;2.30;;;21.50;91.90;;;;;;5074072;28;20044;-75
2022/07/20 03:18:55;;;;;;;3.17;2.30;;;21.50;92.10;;;;;;5072919;28;20056;-75
2022/07/20 03:21:21;;;;;;;5.57;2.33;;;21.50;92.20;;;;;;5073915;28;20045;-75
2022/07/20 03:23:47;;;;;;;4.43;2.53;;;21.50;92.30;;;;;;5073899;28;20421;-75
2022/07/20 03:26:12;;;;;;;4.20;2.80;;;21.40;92.20;;;;;;5073533;28;20078;-75
2022/07/20 03:28:38;;;;;;;3.55;2.67;;;21.40;92.40;;;;;;5074572;28;20044;-75
2022/07/20 03:31:04;;;;;;;4.63;2.58;;;21.40;92.60;;;;;;5074004;28;20048;-75
2022/07/20 03:33:29;;;;;;;3.42;2.30;;;21.40;92.80;;;;;;5072533;28;20488;-75
2022/07/20 03:35:55;;;;;;;4.95;2.30;;;21.30;92.90;;;;;;5072987;28;20044;-75
2022/07/20 03:38:21;;;;;;;4.43;2.20;;;21.30;93.00;;;;;;5072422;28;20040;-75
2022/07/20 03:40:47;;;;;;;4.53;2.80;;;21.30;93.00;;;;;;5074157;28;20048;-75
2022/07/20 03:43:12;;;;;;;4.20;2.25;;;21.30;93.20;;;;;;5073378;28;20102;-75
2022/07/20 03:45:38;;;;;;;3.50;2.40;;;21.20;93.20;;;;;;5072441;28;20040;-75
2022/07/20 03:48:04;;;;;;;3.42;2.17;;;21.20;93.30;;;;;;5072764;28;20055;-75
2022/07/20 03:50:30;;;;;;;4.25;2.20;;;21.30;93.50;;;;;;5073091;28;20529;-75
2022/07/20 03:52:56;;;;;;;3.40;2.20;;;21.20;93.60;;;;;;5074474;28;20091;-75
2022/07/20 03:55:22;;;;;;;4.78;2.40;;;21.20;93.80;;;;;;5074042;28;20048;-75
2022/07/20 03:57:47;;;;;;;2.80;2.10;;;21.20;93.90;;;;;;5073321;28;20371;-75
2022/07/20 04:00:13;;;;;;;3.83;2.22;;;21.20;93.90;;;;;;5073359;28;20374;-75
2022/07/20 04:02:39;;;;;;;3.80;2.33;;;21.20;94.00;;;;;;5071923;28;20052;-75
2022/07/20 04:05:06;;;;;;;3.58;2.30;;;21.10;94.20;;;;;;5073301;28;20125;-75
2022/07/20 04:07:31;;;;;;;3.58;2.40;;;21.10;94.20;;;;;;5073257;28;20052;-75
2022/07/20 04:09:57;;;;;;;3.65;2.38;;;21.20;94.40;;;;;;5073486;28;20058;-75
2022/07/20 04:12:24;;;;;;;4.47;2.50;;;21.10;94.40;;;;;;5073981;28;20099;-75
2022/07/20 04:14:52;;;;;;;3.75;2.38;;;21.10;94.50;;;;;;5073297;28;20060;-75
2022/07/20 04:17:18;;;;;;;3.70;2.20;;;21.20;94.50;;;;;;5073247;28;20052;-75
2022/07/20 04:19:44;;;;;;;6.22;2.40;;;21.20;94.60;;;;;;5073403;28;20036;-75
2022/07/20 04:22:10;;;;;;;5.25;2.35;;;21.30;94.60;;;;;;5073173;28;20408;-75
2022/07/20 04:24:36;;;;;;;3.20;2.10;;;21.30;94.80;;;;;;5073174;28;20049;-75
2022/07/20 04:27:03;;;;;;;4.80;2.25;;;21.30;94.80;;;;;;5055722;28;20053;-75
2022/07/20 04:29:28;;;;;;;3.28;2.13;;;21.30;94.60;;;;;;5073004;28;20082;-75
2022/07/20 04:31:54;;;;;;;3.75;2.30;;;21.30;94.50;;;;;;5074827;28;20037;-75
2022/07/20 04:34:20;;;;;;;2.83;2.17;;;21.40;94.60;;;;;;5077435;28;20098;-75
2022/07/20 04:36:46;;;;;;;4.35;2.40;;;21.40;94.50;;;;;;5077174;28;20451;-75
2022/07/20 04:39:12;;;;;;;4.22;2.40;;;21.50;94.60;;;;;;5077178;28;20123;-75
2022/07/20 04:41:38;;;;;;;3.15;2.22;;;21.50;94.80;;;;;;5077040;28;20036;-75
2022/07/20 04:44:04;;;;;;;3.60;2.40;;;21.50;95.20;;;;;;5076664;28;20132;-75
2022/07/20 04:46:30;;;;;;;6.00;2.78;;;21.60;95.40;;;;;;5075894;28;20044;-75
2022/07/20 04:48:56;;;;;;;5.07;2.28;;;21.60;95.40;;;;;;5059384;28;20051;-75
2022/07/20 04:51:21;;;;;;;2.97;2.20;;;21.70;95.60;;;;;;5076441;28;20044;-75
2022/07/20 04:53:48;;;;;;;4.35;2.58;;;21.80;95.70;;;;;;5077059;28;20049;-75
2022/07/20 04:56:14;;;;;;;2.83;2.17;;;21.80;95.70;;;;;;5075724;28;20048;-75
2022/07/20 04:58:39;;;;;;;4.07;2.47;;;21.90;95.90;;;;;;5076482;28;20049;-75
2022/07/20 05:01:05;;;;;;;3.17;2.20;;;22.00;96.20;;;;;;5076577;28;20375;-75
2022/07/20 05:03:31;;;;;;;2.88;2.40;;;22.00;96.10;;;;;;5091991;28;20060;-75
2022/07/20 05:05:56;;;;;;;5.63;2.47;;;22.20;96.00;;;;;;5076575;28;20037;-75
2022/07/20 05:08:22;;;;;;;3.05;2.35;;;22.30;95.90;;;;;;5076335;28;20045;-75
2022/07/20 05:10:48;;;;;;;4.05;2.40;;;22.40;95.40;;;;;;5076359;28;20128;-75
2022/07/20 05:13:13;;;;;;;4.65;2.35;;;22.50;95.30;;;;;;5075414;28;20048;-76
2022/07/20 05:15:39;;;;;;;3.33;2.30;;;22.60;95.30;;;;;;5076373;28;20393;-75
2022/07/20 05:18:05;;;;;;;4.00;2.20;;;22.80;95.00;;;;;;5076415;28;20099;-75
2022/07/20 05:20:30;;;;;;;2.88;2.20;;;22.90;95.10;;;;;;5075667;28;20041;-75
2022/07/20 05:22:56;;;;;;;4.05;2.30;;;23.00;94.60;;;;;;5076178;28;20547;-75
2022/07/20 05:25:22;;;;;;;4.60;2.50;;;23.10;94.60;;;;;;5075048;28;20101;-76
2022/07/20 05:27:47;;;;;;;4.47;2.53;;;23.20;95.00;;;;;;5091717;28;20044;-75
2022/07/20 05:30:13;;;;;;;3.05;2.55;;;23.30;95.40;;;;;;5076027;28;20044;-75
2022/07/20 05:32:39;;;;;;;4.30;2.75;;;23.40;95.80;;;;;;5075098;28;20052;-75
2022/07/20 05:35:06;;;;;;;3.95;2.97;;;23.40;96.60;;;;;;5075951;28;20127;-75
2022/07/20 05:37:32;;;;;;;3.10;2.13;;;23.50;96.90;;;;;;5075950;28;20053;-75
2022/07/20 05:39:58;;;;;;;4.60;2.50;;;23.60;97.10;;;;;;5075940;28;20063;-75
2022/07/20 05:42:23;;;;;;;2.85;2.47;;;23.60;97.90;;;;;;5075207;28;20041;-75
2022/07/20 05:44:49;;;;;;;5.40;2.40;;;23.70;98.10;;;;;;5075254;28;20048;-75
2022/07/20 05:47:15;;;;;;;4.43;2.33;;;23.80;98.30;;;;;;5074626;28;20063;-75
2022/07/20 05:49:40;;;;;;;3.85;2.58;;;23.90;98.50;;;;;;5075950;28;20175;-75
2022/07/20 05:52:06;;;;;;;6.13;2.60;;;24.00;98.40;;;;;;5075258;28;20044;-75
2022/07/20 05:54:32;;;;;;;3.72;2.40;;;24.10;98.10;;;;;;5075637;28;20474;-75
2022/07/20 05:56:57;;;;;;;4.55;2.50;;;24.20;95.90;;;;;;5074907;28;20174;-75
2022/07/20 05:59:23;;;;;;;3.15;2.60;;;24.40;93.90;;;;;;5074853;28;20052;-75
2022/07/20 06:01:49;;;;;;;3.00;2.55;;;24.50;93.20;;;;;;5075513;28;20543;-75
2022/07/20 06:04:14;;;;;;;4.03;3.08;;;24.70;92.60;;;;;;5075588;28;20082;-74
2022/07/20 06:06:41;;;;;;;4.25;2.72;;;24.80;92.00;;;;;;5075992;28;20051;-75
2022/07/20 06:09:07;;;;;;;4.30;2.67;;;24.90;91.80;;;;;;5074138;28;20044;-75
2022/07/20 06:11:34;;;;;;;4.32;2.30;;;25.00;91.40;;;;;;5075408;28;20056;-76
2022/07/20 06:14:00;;;;;;;5.07;2.50;;;25.10;91.20;;;;;;5075805;28;20040;-68
2022/07/20 06:16:27;;;;;;;4.13;2.63;;;25.20;90.90;;;;;;5074023;28;20049;-68
2022/07/20 06:18:52;;;;;;;4.43;2.78;;;25.30;90.50;;;;;;5074478;28;20098;-68
2022/07/20 06:21:18;;;;;;;5.57;2.60;;;25.40;90.40;;;;;;5075205;28;20509;-68
2022/07/20 06:23:44;;;;;;;5.07;2.70;;;25.50;90.00;;;;;;5075644;28;20375;-68
2022/07/20 06:26:10;;;;;;;4.47;2.60;;;25.60;89.40;;;;;;5075055;28;20048;-68
2022/07/20 06:28:36;;;;;;;4.60;2.40;;;25.60;88.90;;;;;;5073829;28;20052;-68
2022/07/20 06:31:03;;;;;;;3.95;2.58;;;25.70;88.50;;;;;;5075416;28;20040;-68
2022/07/20 06:33:28;;;;;;;3.58;2.20;;;25.80;88.60;;;;;;5074940;28;20124;-68
2022/07/20 06:35:54;;;;;;;6.65;2.70;;;25.90;88.50;;;;;;5074861;28;20143;-68
2022/07/20 06:38:20;;;;;;;3.45;2.40;;;26.00;88.50;;;;;;5075086;28;20051;-68
2022/07/20 06:40:45;;;;;;;5.07;2.72;;;26.10;89.00;;;;;;5075335;28;20475;-68
2022/07/20 06:43:11;;;;;;;4.78;2.60;;;26.20;88.10;;;;;;5074680;28;20044;-68
2022/07/20 06:45:37;;;;;;;3.90;2.15;;;26.30;88.30;;;;;;5057064;28;20044;-68
2022/07/20 06:48:03;;;;;;;3.53;2.67;;;26.40;88.40;;;;;;5074596;28;20137;-68
2022/07/20 06:50:29;;;;;;;3.40;2.47;;;26.50;88.40;;;;;;5074270;28;20044;-68
2022/07/20 06:52:54;;;;;;;5.38;2.58;;;26.60;87.50;;;;;;5074563;28;20482;-68
2022/07/20 06:55:20;;;;;;;6.80;3.13;;;26.70;86.50;;;;;;5074617;28;20044;-68
2022/07/20 06:57:46;;;;;;;5.40;2.70;;;26.80;85.40;;;;;;5074181;28;20048;-68
2022/07/20 07:00:13;;;;;;;3.55;2.60;;;26.80;85.10;;;;;;5074824;28;20097;-68
2022/07/20 07:02:39;;;;;;;4.65;3.20;;;26.90;85.00;;;;;;5075103;28;20362;-68
2022/07/20 07:05:06;;;;;;;3.38;2.65;;;27.00;84.40;;;;;;5074202;28;20152;-68
2022/07/20 07:07:31;;;;;;;3.10;2.78;;;27.00;83.90;;;;;;5074214;28;20055;-69
2022/07/20 07:09:57;;;;;;;6.07;2.53;;;27.10;83.80;;;;;;5073413;28;20049;-67
2022/07/20 07:12:23;;;;;;;3.65;2.42;;;27.20;83.70;;;;;;5073983;28;20053;-67
2022/07/20 07:14:48;;;;;;;4.97;2.83;;;27.30;83.80;;;;;;5073996;28;20097;-67
2022/07/20 07:17:15;;;;;;;3.72;2.67;;;27.40;83.60;;;;;;5074009;28;20142;-67
2022/07/20 07:19:41;;;;;;;6.78;2.97;;;27.40;83.00;;;;;;5074149;28;20045;-67
2022/07/20 07:22:06;;;;;;;4.65;2.58;;;27.40;82.70;;;;;;5073827;28;20048;-68
2022/07/20 07:24:32;;;;;;;4.60;2.60;;;27.50;82.50;;;;;;5073841;28;20375;-67
2022/07/20 07:26:58;;;;;;;4.53;2.95;;;27.50;82.40;;;;;;5072516;28;20141;-67
2022/07/20 07:29:25;;;;;;;11.65;2.97;;;27.60;82.50;;;;;;5073598;28;20098;-67
2022/07/20 07:31:51;;;;;;;4.32;2.70;;;27.70;82.50;;;;;;5074409;28;20045;-67
2022/07/20 07:34:17;;;;;;;6.57;2.97;;;27.70;83.00;;;;;;5073765;28;20501;-67
2022/07/20 07:36:43;;;;;;;3.92;2.97;;;27.80;82.40;;;;;;5073710;28;20051;-67
2022/07/20 07:39:08;;;;;;;4.30;2.97;;;27.90;82.60;;;;;;5073272;28;20044;-67
2022/07/20 07:41:34;;;;;;;4.07;2.95;;;27.90;83.00;;;;;;5073219;28;20101;-67
2022/07/20 07:44:00;;;;;;;3.95;2.80;;;27.90;83.50;;;;;;5074048;28;20055;-67
2022/07/20 07:46:26;;;;;;;6.15;3.03;;;28.00;82.90;;;;;;5072973;28;20049;-68
2022/07/20 07:48:52;;;;;;;4.35;3.08;;;28.10;81.80;;;;;;5074182;28;20382;-66
2022/07/20 07:51:17;;;;;;;6.13;3.40;;;28.10;81.70;;;;;;5073477;28;20522;-67
2022/07/20 07:53:43;;;;;;;5.30;3.28;;;28.10;81.50;;;;;;5073331;28;20127;-67
2022/07/20 07:56:09;;;;;;;4.65;3.00;;;28.20;81.30;;;;;;5072477;28;20094;-67
2022/07/20 07:58:34;;;;;;;4.32;3.38;;;28.20;81.00;;;;;;5073259;28;20053;-67
2022/07/20 08:01:00;;;;;;;4.15;3.40;;;28.20;81.00;;;;;;5073282;28;20070;-66
2022/07/20 08:03:26;;;;;;;5.57;4.00;;;28.30;81.00;;;;;;5074311;28;20062;-67
2022/07/20 08:05:51;;;;;;;5.32;3.85;;;28.30;81.00;;;;;;5073051;28;20480;-69
2022/07/20 08:08:17;;;;;;;4.78;3.75;;;28.30;81.40;;;;;;5073603;28;20422;-68
2022/07/20 08:10:43;;;;;;;5.38;3.85;;;28.20;82.10;;;;;;5055331;28;20052;-68
2022/07/20 08:13:10;;;;;;;7.65;4.40;;;28.20;83.20;;;;;;5073321;28;20451;-68
2022/07/20 08:15:36;;;;;;;5.20;4.10;;;28.10;83.90;;;;;;5072230;28;20135;-68
2022/07/20 08:18:03;;;;;;;5.55;4.30;;;28.10;84.60;;;;;;5073168;28;20048;-69
2022/07/20 08:20:28;;;;;;;6.00;4.68;;;28.10;85.20;;;;;;5073192;28;20466;-67
2022/07/20 08:22:55;;;;;;;7.95;4.85;;;28.10;86.30;;;;;;5072935;28;20088;-67
2022/07/20 08:25:21;;;;;;;5.30;4.80;;;28.10;86.80;;;;;;5073759;28;20049;-68
2022/07/20 08:27:47;;;;;;;7.97;5.18;;;28.10;87.50;;;;;;5073160;28;20173;-68
2022/07/20 08:30:13;;;;;;;7.90;5.15;;;28.10;88.40;;;;;;5073709;28;20090;-68
2022/07/20 08:32:39;;;;;;;6.35;4.97;;;28.10;89.00;;;;;;5072162;28;20539;-68
2022/07/20 08:35:05;;;;;;;7.22;6.05;;;28.10;90.00;;;;;;5073569;28;20094;-69
2022/07/20 08:37:31;;;;;;;11.85;6.72;;;28.20;90.40;;;;;;5072870;28;20074;-68
2022/07/20 08:39:57;;;;;;;9.82;6.63;;;28.20;90.70;;;;;;5072978;28;20449;-68
2022/07/20 08:42:23;;;;;;;10.23;6.70;;;28.20;91.20;;;;;;5073032;28;20040;-68
2022/07/20 08:44:49;;;;;;;8.80;7.70;;;28.30;91.60;;;;;;5073489;28;20048;-68
2022/07/20 08:47:16;;;;;;;10.10;8.10;;;28.30;91.90;;;;;;5072944;28;20058;-68
2022/07/20 08:49:47;;;;;;;9.73;8.20;;;28.30;92.40;;;;;;5071777;28;20040;-69
2022/07/20 08:52:14;;;;;;;10.77;8.40;;;28.40;93.70;;;;;;5072611;28;20071;-69
2022/07/20 08:54:40;;;;;;;12.05;9.10;;;28.40;93.70;;;;;;5073364;28;20048;-69
2022/07/20 08:57:17;;;;;;;11.00;9.60;;;28.50;94.10;;;;;;5071469;28;20057;-68
2022/07/20 08:59:44;;;;;;;12.80;9.45;;;28.60;94.80;;;;;;5072702;28;20040;-69
2022/07/20 09:02:10;;;;;;;11.25;9.90;;;28.60;94.90;;;;;;5072596;28;20060;-68
2022/07/20 09:04:54;;;;;;;10.68;9.57;;;28.60;95.20;;;;;;5073184;28;20103;-68
2022/07/20 09:07:44;;;;;;;10.73;9.10;;;28.60;95.50;;;;;;5073202;28;20048;-68
2022/07/20 09:10:17;;;;;;;12.32;9.27;;;28.60;96.10;;;;;;5073351;28;20041;-68
2022/07/20 09:13:12;;;;;;;10.10;8.77;;;28.70;96.60;;;;;;5072583;28;20049;-68
2022/07/20 09:15:48;;;;;;;15.25;9.95;;;28.90;96.60;;;;;;5072056;28;20484;-67
2022/07/20 09:18:27;;;;;;;11.07;9.60;;;29.10;96.30;;;;;;5074515;28;20048;-68
2022/07/20 09:20:59;;;;;;;12.98;10.40;;;29.20;96.20;;;;;;5076667;28;20416;-68
2022/07/20 09:23:33;;;;;;;12.07;10.02;;;29.30;96.30;;;;;;5075920;28;20049;-68
2022/07/20 09:26:01;;;;;;;12.50;10.35;;;29.40;96.20;;;;;;5075922;28;20127;-68
2022/07/20 09:28:36;;;;;;;13.27;11.20;;;29.30;96.30;;;;;;5076286;28;20392;-68
2022/07/20 09:31:08;;;;;;;15.45;11.32;;;29.40;95.80;;;;;;5075861;28;20059;-68
2022/07/20 09:33:34;;;;;;;12.00;10.27;;;29.40;94.90;;;;;;5076047;28;20446;-68
2022/07/20 09:36:03;;;;;;;15.13;11.43;;;29.30;94.30;;;;;;5076222;28;20051;-68
2022/07/20 09:38:38;;;;;;;13.40;10.70;;;29.30;94.20;;;;;;5076169;28;20044;-68
2022/07/20 09:41:19;;;;;;;12.75;11.45;;;29.40;94.80;;;;;;5075642;28;20095;-68
2022/07/20 09:43:45;;;;;;;14.20;11.77;;;29.40;94.20;;;;;;5075627;28;20088;-69
2022/07/20 09:46:13;;;;;;;13.02;11.32;;;29.30;93.90;;;;;;5076089;28;20087;-68
2022/07/20 09:48:41;;;;;;;13.30;10.73;;;29.20;94.00;;;;;;5075426;28;20136;-68
2022/07/20 09:51:20;;;;;;;13.35;11.95;;;29.40;94.10;;;;;;5074301;28;20044;-68
2022/07/20 09:53:47;;;;;;;15.73;12.63;;;29.50;94.00;;;;;;5076253;28;20381;-70
2022/07/20 09:56:15;;;;;;;14.48;11.63;;;29.40;92.90;;;;;;5075340;28;20047;-69
2022/07/20 09:58:47;;;;;;;14.07;12.32;;;29.20;92.60;;;;;;5075200;28;20119;-69
2022/07/20 10:01:28;;;;;;;14.75;11.70;;;29.20;92.80;;;;;;5075376;28;20128;-68
2022/07/20 10:03:55;;;;;;;15.77;12.75;;;29.20;92.30;;;;;;5075941;28;20473;-68
2022/07/20 10:06:23;;;;;;;14.85;12.52;;;29.20;93.10;;;;;;5075192;28;20067;-68
2022/07/20 10:08:50;;;;;;;12.77;11.15;;;29.30;92.80;;;;;;5075147;28;20045;-69
2022/07/20 10:11:19;;;;;;;12.25;11.02;;;29.30;91.70;;;;;;5075214;28;20049;-67
2022/07/20 10:13:46;;;;;;;13.63;11.55;;;29.20;91.80;;;;;;5074815;28;20080;-68
2022/07/20 10:16:48;;;;;;;12.63;11.05;;;29.20;92.20;;;;;;5075039;28;20083;-68
2022/07/20 10:19:14;;;;;;;13.07;11.48;;;29.20;92.10;;;;;;5074986;28;20090;-68
2022/07/20 10:21:42;;;;;;;14.68;11.13;;;29.20;92.40;;;;;;5074818;28;20048;-68
2022/07/20 10:24:34;;;;;;;12.60;11.27;;;29.20;92.50;;;;;;5075362;28;20144;-68
2022/07/20 10:27:02;;;;;;;13.25;10.38;;;29.30;92.30;;;;;;5075342;28;20110;-67
2022/07/20 10:29:37;;;;;;;11.93;9.80;;;29.30;91.90;;;;;;5072644;28;20144;-67
2022/07/20 10:32:26;;;;;;;12.43;10.38;;;29.40;91.90;;;;;;5075268;28;20106;-68
2022/07/20 10:35:01;;;;;;;12.55;10.40;;;29.40;92.20;;;;;;5074692;28;20048;-68
2022/07/20 10:37:50;;;;;;;12.88;10.32;;;29.30;92.20;;;;;;5075314;28;20040;-68
2022/07/20 10:40:23;;;;;;;11.18;10.10;;;29.40;92.50;;;;;;5075043;28;20052;-68
2022/07/20 10:43:10;;;;;;;10.07;9.07;;;29.50;92.60;;;;;;5075568;28;20040;-68
2022/07/20 10:45:36;;;;;;;13.00;9.85;;;29.60;92.30;;;;;;5075039;28;20048;-68
2022/07/20 10:48:11;;;;;;;11.00;9.55;;;29.50;92.20;;;;;;5074326;28;20043;-69
2022/07/20 10:50:38;;;;;;;11.03;9.90;;;29.50;92.60;;;;;;5074286;28;20507;-68
2022/07/20 10:53:09;;;;;;;11.88;9.57;;;29.50;92.60;;;;;;5074769;28;20084;-68
2022/07/20 10:55:35;;;;;;;12.40;9.52;;;29.50;92.70;;;;;;5073843;28;20662;-68
2022/07/20 10:58:12;;;;;;;10.65;9.52;;;29.60;92.50;;;;;;5074151;28;20048;-67
2022/07/20 11:00:40;;;;;;;10.65;8.75;;;29.60;92.40;;;;;;5074581;28;20040;-68
2022/07/20 11:03:23;;;;;;;8.38;7.57;;;29.60;92.00;;;;;;5074479;28;20049;-68
2022/07/20 11:06:01;;;;;;;10.27;7.30;;;29.70;89.30;;;;;;5074800;28;20041;-68
2022/07/20 11:08:27;;;;;;;8.20;7.10;;;29.80;88.90;;;;;;5074054;28;20045;-69
2022/07/20 11:10:52;;;;;;;7.90;7.10;;;29.80;88.10;;;;;;5073848;28;20047;-68
2022/07/20 11:13:18;;;;;;;8.02;7.22;;;29.80;88.00;;;;;;5073972;28;20066;-68
2022/07/20 11:15:47;;;;;;;10.48;7.38;;;30.00;87.80;;;;;;5073836;28;20047;-68
2022/07/20 11:18:18;;;;;;;9.10;8.18;;;30.00;87.20;;;;;;5073377;28;20044;-67
2022/07/20 11:20:52;;;;;;;10.52;6.63;;;30.00;87.50;;;;;;5073790;28;20067;-67
2022/07/20 11:23:21;;;;;;;8.18;7.35;;;30.00;86.40;;;;;;5073715;28;20052;-67
2022/07/20 11:25:58;;;;;;;8.30;6.95;;;30.00;86.80;;;;;;5073600;28;20045;-68
2022/07/20 11:28:26;;;;;;;8.00;6.45;;;30.00;86.70;;;;;;5074366;28;20052;-67
2022/07/20 11:30:53;;;;;;;7.90;6.50;;;30.00;86.50;;;;;;5073481;28;20044;-67
2022/07/20 11:33:26;;;;;;;7.45;5.72;;;30.00;86.30;;;;;;5073543;28;20055;-68
2022/07/20 11:35:58;;;;;;;9.65;6.32;;;30.00;85.50;;;;;;5056560;28;20048;-68
2022/07/20 11:38:34;;;;;;;8.48;6.63;;;30.10;86.60;;;;;;5073959;28;20044;-68
2022/07/20 11:41:02;;;;;;;8.80;5.82;;;30.10;86.70;;;;;;5074136;28;20097;-68
2022/07/20 11:43:28;;;;;;;6.85;6.15;;;30.10;86.50;;;;;;5073302;28;20056;-68
2022/07/20 11:45:54;;;;;;;8.73;6.28;;;30.20;86.60;;;;;;5073289;28;20052;-68
2022/07/20 11:48:23;;;;;;;8.00;6.40;;;30.10;86.90;;;;;;5073350;28;20166;-67
2022/07/20 11:50:48;;;;;;;8.30;6.25;;;30.10;86.90;;;;;;5073683;28;20056;-68
2022/07/20 11:53:28;;;;;;;6.65;5.18;;;30.00;87.30;;;;;;5073570;28;20040;-67
2022/07/20 11:55:57;;;;;;;7.22;6.00;;;30.00;87.30;;;;;;5073233;28;20182;-67
2022/07/20 11:58:25;;;;;;;6.88;5.40;;;30.00;87.50;;;;;;5073017;28;20409;-68
2022/07/20 12:00:51;;;;;;;8.27;5.68;;;29.90;87.00;;;;;;5073510;28;20389;-68
2022/07/20 12:03:21;;;;;;;6.10;5.35;;;29.80;87.10;;;;;;5073955;28;20146;-68
2022/07/20 12:05:47;;;;;;;9.63;6.03;;;29.80;87.20;;;;;;5073632;28;20054;-68
2022/07/20 12:08:18;;;;;;;7.38;5.90;;;30.00;87.30;;;;;;5072933;28;20048;-67
2022/07/20 12:10:44;;;;;;;6.70;5.72;;;30.00;86.70;;;;;;5072992;28;20040;-67
2022/07/20 12:13:13;;;;;;;8.15;5.60;;;29.90;86.90;;;;;;5073020;28;20154;-68
2022/07/20 12:15:39;;;;;;;6.72;4.78;;;29.90;87.40;;;;;;5072926;28;20143;-68
2022/07/20 12:18:05;;;;;;;7.03;5.60;;;29.80;87.30;;;;;;5072680;28;20469;-68
2022/07/20 12:20:31;;;;;;;6.90;5.25;;;29.90;87.60;;;;;;5073360;28;20037;-69
2022/07/20 12:23:04;;;;;;;6.80;5.38;;;30.00;86.90;;;;;;5072823;28;20392;-67
2022/07/20 12:25:40;;;;;;;7.25;5.82;;;30.00;87.40;;;;;;5072792;28;20066;-68
2022/07/20 12:28:07;;;;;;;6.38;5.40;;;29.90;87.50;;;;;;5073165;28;20044;-68
2022/07/20 12:30:36;;;;;;;7.10;5.28;;;29.80;88.20;;;;;;5071702;28;20094;-68
2022/07/20 12:33:11;;;;;;;6.47;5.13;;;29.80;87.90;;;;;;5072887;28;20115;-69
2022/07/20 12:35:39;;;;;;;5.72;5.13;;;29.70;87.20;;;;;;5073249;28;20045;-69
2022/07/20 12:38:05;;;;;;;6.57;5.07;;;29.70;87.20;;;;;;5072678;28;20052;-69
2022/07/20 12:40:33;;;;;;;7.50;5.10;;;29.70;87.20;;;;;;5071815;28;20405;-68
2022/07/20 12:42:59;;;;;;;7.13;5.28;;;29.70;87.30;;;;;;5073022;28;20094;-68
2022/07/20 12:45:24;;;;;;;6.82;5.47;;;29.70;87.50;;;;;;5072776;28;20044;-68
2022/07/20 12:47:50;;;;;;;7.65;5.10;;;29.80;87.50;;;;;;5072926;28;20040;-69
2022/07/20 12:50:16;;;;;;;6.25;5.10;;;30.00;87.60;;;;;;5072785;28;20131;-69